sensor_id;sensor_type;location;lat;lon;timestamp;P1;durP1;ratioP1;P2;durP2;ratioP2
12593;SDS011;6362;50.208;9.182;2023-09-18T00:00:22;4.47;;;3.00;;
12593;SDS011;6362;50.208;9.182;2023-09-18T00:02:47;2.88;;;2.60;;
12593;SDS011;6362;50.208;9.182;2023-09-18T00:05:13;3.67;;;2.70;;
12593;SDS011;6362;50.208;9.182;2023-09-18T00:07:42;4.10;;;2.97;;
12593;SDS011;6362;50.208;9.182;2023-09-18T00:10:09;6.70;;;2.80;;
12593;SDS011;6362;50.208;9.182;2023-09-18T00:12:35;8.05;;;2.90;;
12593;SDS011;6362;50.208;9.182;2023-09-18T00:15:01;4.38;;;2.50;;
12593;SDS011;6362;50.208;9.182;2023-09-18T00:17:26;5.90;;;2.90;;
12593;SDS011;6362;50.208;9.182;2023-09-18T00:19:52;4.22;;;2.80;;
12593;SDS011;6362;50.208;9.182;2023-09-18T00:22:17;5.90;;;2.72;;
12593;SDS011;6362;50.208;9.182;2023-09-18T00:24:43;3.90;;;2.70;;
12593;SDS011;6362;50.208;9.182;2023-09-18T00:27:08;5.00;;;2.65;;
12593;SDS011;6362;50.208;9.182;2023-09-18T00:29:36;3.30;;;2.78;;
12593;SDS011;6362;50.208;9.182;2023-09-18T00:32:02;5.75;;;3.00;;
12593;SDS011;6362;50.208;9.182;2023-09-18T00:34:29;5.28;;;2.55;;
12593;SDS011;6362;50.208;9.182;2023-09-18T00:36:54;5.45;;;3.03;;
12593;SDS011;6362;50.208;9.182;2023-09-18T00:39:20;3.72;;;2.60;;
12593;SDS011;6362;50.208;9.182;2023-09-18T00:41:45;3.35;;;2.70;;
12593;SDS011;6362;50.208;9.182;2023-09-18T00:44:14;4.57;;;3.70;;
12593;SDS011;6362;50.208;9.182;2023-09-18T00:46:39;3.80;;;2.42;;
12593;SDS011;6362;50.208;9.182;2023-09-18T00:49:05;4.15;;;2.47;;
12593;SDS011;6362;50.208;9.182;2023-09-18T00:51:31;4.63;;;2.80;;
12593;SDS011;6362;50.208;9.182;2023-09-18T00:53:57;2.85;;;2.55;;
12593;SDS011;6362;50.208;9.182;2023-09-18T00:56:24;4.68;;;3.22;;
12593;SDS011;6362;50.208;9.182;2023-09-18T00:58:50;3.50;;;2.50;;
12593;SDS011;6362;50.208;9.182;2023-09-18T01:01:17;5.35;;;3.03;;
12593;SDS011;6362;50.208;9.182;2023-09-18T01:03:47;5.32;;;2.55;;
12593;SDS011;6362;50.208;9.182;2023-09-18T01:06:15;3.30;;;2.55;;
12593;SDS011;6362;50.208;9.182;2023-09-18T01:08:40;3.22;;;2.92;;
12593;SDS011;6362;50.208;9.182;2023-09-18T01:16:41;2.85;;;2.33;;
12593;SDS011;6362;50.208;9.182;2023-09-18T01:19:15;4.40;;;2.58;;
12593;SDS011;6362;50.208;9.182;2023-09-18T01:21:41;5.55;;;2.65;;
12593;SDS011;6362;50.208;9.182;2023-09-18T01:24:06;3.22;;;2.30;;
12593;SDS011;6362;50.208;9.182;2023-09-18T01:26:32;3.53;;;2.50;;
12593;SDS011;6362;50.208;9.182;2023-09-18T01:28:57;4.93;;;2.60;;
12593;SDS011;6362;50.208;9.182;2023-09-18T01:31:23;5.00;;;2.35;;
12593;SDS011;6362;50.208;9.182;2023-09-18T01:33:48;7.55;;;2.70;;
12593;SDS011;6362;50.208;9.182;2023-09-18T01:36:15;3.70;;;2.55;;
12593;SDS011;6362;50.208;9.182;2023-09-18T01:38:42;3.25;;;2.50;;
12593;SDS011;6362;50.208;9.182;2023-09-18T01:41:08;4.55;;;2.88;;
12593;SDS011;6362;50.208;9.182;2023-09-18T01:43:34;3.95;;;2.20;;
12593;SDS011;6362;50.208;9.182;2023-09-18T01:46:00;3.67;;;2.70;;
12593;SDS011;6362;50.208;9.182;2023-09-18T01:48:25;4.53;;;2.30;;
12593;SDS011;6362;50.208;9.182;2023-09-18T01:50:51;4.88;;;2.40;;
12593;SDS011;6362;50.208;9.182;2023-09-18T01:53:16;3.88;;;2.35;;
12593;SDS011;6362;50.208;9.182;2023-09-18T01:55:42;3.00;;;2.58;;
12593;SDS011;6362;50.208;9.182;2023-09-18T01:58:07;5.45;;;2.70;;
12593;SDS011;6362;50.208;9.182;2023-09-18T02:00:34;4.30;;;2.75;;
12593;SDS011;6362;50.208;9.182;2023-09-18T02:02:59;4.32;;;2.67;;
12593;SDS011;6362;50.208;9.182;2023-09-18T02:05:25;4.00;;;2.65;;
12593;SDS011;6362;50.208;9.182;2023-09-18T02:07:50;4.78;;;2.55;;
12593;SDS011;6362;50.208;9.182;2023-09-18T02:10:16;2.90;;;2.60;;
12593;SDS011;6362;50.208;9.182;2023-09-18T02:12:41;4.60;;;3.03;;
12593;SDS011;6362;50.208;9.182;2023-09-18T02:15:07;6.57;;;3.03;;
12593;SDS011;6362;50.208;9.182;2023-09-18T02:17:35;5.63;;;3.10;;
12593;SDS011;6362;50.208;9.182;2023-09-18T02:20:00;4.95;;;2.92;;
12593;SDS011;6362;50.208;9.182;2023-09-18T02:22:31;3.05;;;2.38;;
12593;SDS011;6362;50.208;9.182;2023-09-18T02:24:57;3.45;;;2.50;;
12593;SDS011;6362;50.208;9.182;2023-09-18T02:27:23;7.43;;;3.00;;
12593;SDS011;6362;50.208;9.182;2023-09-18T02:29:49;7.07;;;3.13;;
12593;SDS011;6362;50.208;9.182;2023-09-18T02:32:15;5.00;;;2.85;;
12593;SDS011;6362;50.208;9.182;2023-09-18T02:34:41;5.80;;;3.38;;
12593;SDS011;6362;50.208;9.182;2023-09-18T02:37:06;4.22;;;3.55;;
12593;SDS011;6362;50.208;9.182;2023-09-18T02:39:31;4.03;;;2.70;;
12593;SDS011;6362;50.208;9.182;2023-09-18T02:41:57;5.35;;;3.20;;
12593;SDS011;6362;50.208;9.182;2023-09-18T02:44:23;4.13;;;2.97;;
12593;SDS011;6362;50.208;9.182;2023-09-18T02:46:48;3.58;;;2.80;;
12593;SDS011;6362;50.208;9.182;2023-09-18T02:49:14;10.75;;;3.38;;
12593;SDS011;6362;50.208;9.182;2023-09-18T02:51:40;6.85;;;3.08;;
12593;SDS011;6362;50.208;9.182;2023-09-18T02:54:05;3.65;;;3.10;;
12593;SDS011;6362;50.208;9.182;2023-09-18T02:56:31;5.22;;;3.40;;
12593;SDS011;6362;50.208;9.182;2023-09-18T02:58:56;5.25;;;3.60;;
12593;SDS011;6362;50.208;9.182;2023-09-18T03:01:21;4.20;;;3.50;;
12593;SDS011;6362;50.208;9.182;2023-09-18T03:06:28;7.35;;;3.35;;
12593;SDS011;6362;50.208;9.182;2023-09-18T03:08:54;5.28;;;3.20;;
12593;SDS011;6362;50.208;9.182;2023-09-18T03:11:20;6.47;;;3.30;;
12593;SDS011;6362;50.208;9.182;2023-09-18T03:13:46;4.63;;;3.10;;
12593;SDS011;6362;50.208;9.182;2023-09-18T03:16:12;4.30;;;3.35;;
12593;SDS011;6362;50.208;9.182;2023-09-18T03:18:37;4.30;;;3.90;;
12593;SDS011;6362;50.208;9.182;2023-09-18T03:21:03;5.88;;;3.13;;
12593;SDS011;6362;50.208;9.182;2023-09-18T03:23:29;5.70;;;3.55;;
12593;SDS011;6362;50.208;9.182;2023-09-18T03:25:54;5.03;;;3.25;;
12593;SDS011;6362;50.208;9.182;2023-09-18T03:28:20;6.03;;;3.15;;
12593;SDS011;6362;50.208;9.182;2023-09-18T03:30:45;5.97;;;3.60;;
12593;SDS011;6362;50.208;9.182;2023-09-18T03:33:11;3.65;;;3.15;;
12593;SDS011;6362;50.208;9.182;2023-09-18T03:35:47;5.47;;;3.50;;
12593;SDS011;6362;50.208;9.182;2023-09-18T03:38:13;5.35;;;3.83;;
12593;SDS011;6362;50.208;9.182;2023-09-18T03:40:38;7.28;;;4.25;;
12593;SDS011;6362;50.208;9.182;2023-09-18T03:43:03;5.15;;;3.08;;
12593;SDS011;6362;50.208;9.182;2023-09-18T03:45:29;7.85;;;2.88;;
12593;SDS011;6362;50.208;9.182;2023-09-18T03:47:54;4.63;;;3.55;;
12593;SDS011;6362;50.208;9.182;2023-09-18T03:50:20;5.80;;;3.85;;
12593;SDS011;6362;50.208;9.182;2023-09-18T03:52:46;5.10;;;4.10;;
12593;SDS011;6362;50.208;9.182;2023-09-18T03:55:11;7.28;;;3.78;;
12593;SDS011;6362;50.208;9.182;2023-09-18T03:57:39;4.95;;;3.63;;
12593;SDS011;6362;50.208;9.182;2023-09-18T04:00:05;4.53;;;3.53;;
12593;SDS011;6362;50.208;9.182;2023-09-18T04:02:32;6.32;;;3.92;;
12593;SDS011;6362;50.208;9.182;2023-09-18T04:04:58;7.30;;;3.97;;
12593;SDS011;6362;50.208;9.182;2023-09-18T04:07:23;4.40;;;3.65;;
12593;SDS011;6362;50.208;9.182;2023-09-18T04:09:48;9.27;;;4.57;;
12593;SDS011;6362;50.208;9.182;2023-09-18T04:12:14;6.97;;;3.92;;
12593;SDS011;6362;50.208;9.182;2023-09-18T04:14:40;8.02;;;4.13;;
12593;SDS011;6362;50.208;9.182;2023-09-18T04:17:06;8.00;;;4.75;;
12593;SDS011;6362;50.208;9.182;2023-09-18T04:19:31;6.57;;;4.90;;
12593;SDS011;6362;50.208;9.182;2023-09-18T04:21:57;7.45;;;4.47;;
12593;SDS011;6362;50.208;9.182;2023-09-18T04:24:23;6.28;;;4.45;;
12593;SDS011;6362;50.208;9.182;2023-09-18T04:26:48;7.15;;;4.18;;
12593;SDS011;6362;50.208;9.182;2023-09-18T04:29:18;5.30;;;4.57;;
12593;SDS011;6362;50.208;9.182;2023-09-18T04:31:44;5.82;;;4.20;;
12593;SDS011;6362;50.208;9.182;2023-09-18T04:34:10;6.30;;;4.70;;
12593;SDS011;6362;50.208;9.182;2023-09-18T04:36:35;6.65;;;3.88;;
12593;SDS011;6362;50.208;9.182;2023-09-18T04:39:02;6.82;;;3.95;;
12593;SDS011;6362;50.208;9.182;2023-09-18T04:41:29;5.63;;;4.28;;
12593;SDS011;6362;50.208;9.182;2023-09-18T04:43:55;7.90;;;4.30;;
12593;SDS011;6362;50.208;9.182;2023-09-18T04:46:21;9.57;;;4.05;;
12593;SDS011;6362;50.208;9.182;2023-09-18T04:48:46;4.72;;;3.78;;
12593;SDS011;6362;50.208;9.182;2023-09-18T04:51:12;7.13;;;4.63;;
12593;SDS011;6362;50.208;9.182;2023-09-18T04:53:37;8.43;;;4.03;;
12593;SDS011;6362;50.208;9.182;2023-09-18T04:56:03;5.88;;;3.85;;
12593;SDS011;6362;50.208;9.182;2023-09-18T04:58:29;5.50;;;4.15;;
12593;SDS011;6362;50.208;9.182;2023-09-18T05:00:55;5.63;;;3.90;;
12593;SDS011;6362;50.208;9.182;2023-09-18T05:03:21;6.53;;;3.95;;
12593;SDS011;6362;50.208;9.182;2023-09-18T05:05:47;8.25;;;3.72;;
12593;SDS011;6362;50.208;9.182;2023-09-18T05:08:13;7.40;;;3.70;;
12593;SDS011;6362;50.208;9.182;2023-09-18T05:10:38;5.25;;;3.92;;
12593;SDS011;6362;50.208;9.182;2023-09-18T05:13:04;5.07;;;3.97;;
12593;SDS011;6362;50.208;9.182;2023-09-18T05:15:30;10.90;;;3.25;;
12593;SDS011;6362;50.208;9.182;2023-09-18T05:17:56;7.10;;;3.88;;
12593;SDS011;6362;50.208;9.182;2023-09-18T05:20:26;7.63;;;3.10;;
12593;SDS011;6362;50.208;9.182;2023-09-18T05:22:53;9.02;;;3.42;;
12593;SDS011;6362;50.208;9.182;2023-09-18T05:25:24;13.38;;;3.58;;
12593;SDS011;6362;50.208;9.182;2023-09-18T05:27:53;7.63;;;3.00;;
12593;SDS011;6362;50.208;9.182;2023-09-18T05:30:24;8.15;;;3.25;;
12593;SDS011;6362;50.208;9.182;2023-09-18T05:32:53;4.40;;;2.67;;
12593;SDS011;6362;50.208;9.182;2023-09-18T05:35:20;6.47;;;3.17;;
12593;SDS011;6362;50.208;9.182;2023-09-18T05:37:46;4.97;;;3.13;;
12593;SDS011;6362;50.208;9.182;2023-09-18T05:40:12;7.60;;;3.10;;
12593;SDS011;6362;50.208;9.182;2023-09-18T05:42:39;8.43;;;3.20;;
12593;SDS011;6362;50.208;9.182;2023-09-18T05:45:08;7.93;;;2.80;;
12593;SDS011;6362;50.208;9.182;2023-09-18T05:47:35;6.93;;;3.00;;
12593;SDS011;6362;50.208;9.182;2023-09-18T05:50:01;10.32;;;3.13;;
12593;SDS011;6362;50.208;9.182;2023-09-18T05:52:28;4.18;;;2.97;;
12593;SDS011;6362;50.208;9.182;2023-09-18T05:54:54;5.75;;;2.70;;
12593;SDS011;6362;50.208;9.182;2023-09-18T05:57:19;11.82;;;3.00;;
12593;SDS011;6362;50.208;9.182;2023-09-18T05:59:45;9.90;;;2.80;;
12593;SDS011;6362;50.208;9.182;2023-09-18T06:02:10;6.55;;;2.78;;
12593;SDS011;6362;50.208;9.182;2023-09-18T06:04:36;6.07;;;3.33;;
12593;SDS011;6362;50.208;9.182;2023-09-18T06:07:05;9.40;;;2.97;;
12593;SDS011;6362;50.208;9.182;2023-09-18T06:09:30;6.20;;;3.00;;
12593;SDS011;6362;50.208;9.182;2023-09-18T06:11:56;7.50;;;2.90;;
12593;SDS011;6362;50.208;9.182;2023-09-18T06:14:22;5.70;;;2.92;;
12593;SDS011;6362;50.208;9.182;2023-09-18T06:16:47;5.47;;;2.70;;
12593;SDS011;6362;50.208;9.182;2023-09-18T06:19:13;6.63;;;3.00;;
12593;SDS011;6362;50.208;9.182;2023-09-18T06:21:38;6.43;;;3.80;;
12593;SDS011;6362;50.208;9.182;2023-09-18T06:24:05;7.85;;;3.00;;
12593;SDS011;6362;50.208;9.182;2023-09-18T06:26:31;12.23;;;3.20;;
12593;SDS011;6362;50.208;9.182;2023-09-18T06:28:56;8.75;;;2.90;;
12593;SDS011;6362;50.208;9.182;2023-09-18T06:31:22;15.00;;;3.78;;
12593;SDS011;6362;50.208;9.182;2023-09-18T06:33:48;7.10;;;2.85;;
12593;SDS011;6362;50.208;9.182;2023-09-18T06:36:14;5.00;;;2.65;;
12593;SDS011;6362;50.208;9.182;2023-09-18T06:38:39;8.30;;;3.10;;
12593;SDS011;6362;50.208;9.182;2023-09-18T06:41:04;7.20;;;2.65;;
12593;SDS011;6362;50.208;9.182;2023-09-18T06:43:30;8.75;;;3.03;;
12593;SDS011;6362;50.208;9.182;2023-09-18T06:45:55;9.23;;;3.22;;
12593;SDS011;6362;50.208;9.182;2023-09-18T06:48:23;10.70;;;2.60;;
12593;SDS011;6362;50.208;9.182;2023-09-18T06:50:49;9.13;;;2.42;;
12593;SDS011;6362;50.208;9.182;2023-09-18T06:53:14;6.47;;;2.50;;
12593;SDS011;6362;50.208;9.182;2023-09-18T06:55:40;11.60;;;3.67;;
12593;SDS011;6362;50.208;9.182;2023-09-18T06:58:05;7.53;;;3.00;;
12593;SDS011;6362;50.208;9.182;2023-09-18T07:00:30;5.45;;;2.50;;
12593;SDS011;6362;50.208;9.182;2023-09-18T07:02:56;8.95;;;2.97;;
12593;SDS011;6362;50.208;9.182;2023-09-18T07:05:22;9.52;;;3.25;;
12593;SDS011;6362;50.208;9.182;2023-09-18T07:07:47;9.40;;;2.55;;
12593;SDS011;6362;50.208;9.182;2023-09-18T07:10:13;7.18;;;2.80;;
12593;SDS011;6362;50.208;9.182;2023-09-18T07:12:38;4.95;;;2.25;;
12593;SDS011;6362;50.208;9.182;2023-09-18T07:15:04;8.57;;;2.45;;
12593;SDS011;6362;50.208;9.182;2023-09-18T07:17:31;5.57;;;1.73;;
12593;SDS011;6362;50.208;9.182;2023-09-18T07:19:57;6.93;;;2.45;;
12593;SDS011;6362;50.208;9.182;2023-09-18T07:22:22;8.63;;;2.20;;
12593;SDS011;6362;50.208;9.182;2023-09-18T07:24:48;14.07;;;2.55;;
12593;SDS011;6362;50.208;9.182;2023-09-18T07:27:13;11.85;;;2.47;;
12593;SDS011;6362;50.208;9.182;2023-09-18T07:29:39;11.75;;;2.58;;
12593;SDS011;6362;50.208;9.182;2023-09-18T07:32:05;7.60;;;2.30;;
12593;SDS011;6362;50.208;9.182;2023-09-18T07:34:30;17.80;;;2.40;;
12593;SDS011;6362;50.208;9.182;2023-09-18T07:36:56;11.18;;;3.17;;
12593;SDS011;6362;50.208;9.182;2023-09-18T07:39:21;8.57;;;2.30;;
12593;SDS011;6362;50.208;9.182;2023-09-18T07:41:47;9.32;;;2.35;;
12593;SDS011;6362;50.208;9.182;2023-09-18T07:44:19;7.35;;;1.98;;
12593;SDS011;6362;50.208;9.182;2023-09-18T07:46:45;10.55;;;2.72;;
12593;SDS011;6362;50.208;9.182;2023-09-18T07:49:11;6.80;;;1.92;;
12593;SDS011;6362;50.208;9.182;2023-09-18T07:51:37;12.02;;;3.03;;
12593;SDS011;6362;50.208;9.182;2023-09-18T07:54:02;5.75;;;1.95;;
12593;SDS011;6362;50.208;9.182;2023-09-18T07:56:28;8.10;;;1.67;;
12593;SDS011;6362;50.208;9.182;2023-09-18T07:58:58;7.63;;;2.03;;
12593;SDS011;6362;50.208;9.182;2023-09-18T08:01:23;8.75;;;2.83;;
12593;SDS011;6362;50.208;9.182;2023-09-18T08:03:49;6.25;;;1.50;;
12593;SDS011;6362;50.208;9.182;2023-09-18T08:06:14;9.10;;;2.75;;
12593;SDS011;6362;50.208;9.182;2023-09-18T08:08:41;7.82;;;1.77;;
12593;SDS011;6362;50.208;9.182;2023-09-18T08:11:07;8.18;;;2.17;;
12593;SDS011;6362;50.208;9.182;2023-09-18T08:13:36;7.03;;;2.03;;
12593;SDS011;6362;50.208;9.182;2023-09-18T08:16:03;7.38;;;2.10;;
12593;SDS011;6362;50.208;9.182;2023-09-18T08:18:31;11.00;;;2.25;;
12593;SDS011;6362;50.208;9.182;2023-09-18T08:20:56;10.60;;;3.72;;
12593;SDS011;6362;50.208;9.182;2023-09-18T08:23:24;5.20;;;2.28;;
12593;SDS011;6362;50.208;9.182;2023-09-18T08:25:49;10.73;;;2.55;;
12593;SDS011;6362;50.208;9.182;2023-09-18T08:28:16;7.90;;;1.65;;
12593;SDS011;6362;50.208;9.182;2023-09-18T08:30:42;3.92;;;1.65;;
12593;SDS011;6362;50.208;9.182;2023-09-18T08:33:12;7.00;;;1.98;;
12593;SDS011;6362;50.208;9.182;2023-09-18T08:35:38;5.00;;;1.85;;
12593;SDS011;6362;50.208;9.182;2023-09-18T08:38:04;6.22;;;2.75;;
12593;SDS011;6362;50.208;9.182;2023-09-18T08:40:30;9.35;;;2.00;;
12593;SDS011;6362;50.208;9.182;2023-09-18T08:42:56;6.93;;;1.70;;
12593;SDS011;6362;50.208;9.182;2023-09-18T08:45:35;4.22;;;1.73;;
12593;SDS011;6362;50.208;9.182;2023-09-18T08:48:05;11.15;;;2.00;;
12593;SDS011;6362;50.208;9.182;2023-09-18T08:50:31;6.47;;;1.90;;
12593;SDS011;6362;50.208;9.182;2023-09-18T08:52:58;6.40;;;1.60;;
12593;SDS011;6362;50.208;9.182;2023-09-18T08:55:24;8.80;;;1.98;;
12593;SDS011;6362;50.208;9.182;2023-09-18T08:57:50;9.88;;;1.55;;
12593;SDS011;6362;50.208;9.182;2023-09-18T09:00:18;8.07;;;1.95;;
12593;SDS011;6362;50.208;9.182;2023-09-18T09:02:46;7.55;;;1.63;;
12593;SDS011;6362;50.208;9.182;2023-09-18T09:05:13;4.85;;;1.70;;
12593;SDS011;6362;50.208;9.182;2023-09-18T09:07:39;5.43;;;1.60;;
12593;SDS011;6362;50.208;9.182;2023-09-18T09:10:05;10.90;;;1.50;;
12593;SDS011;6362;50.208;9.182;2023-09-18T09:15:29;7.00;;;2.00;;
12593;SDS011;6362;50.208;9.182;2023-09-18T09:18:06;7.05;;;2.38;;
12593;SDS011;6362;50.208;9.182;2023-09-18T09:20:34;7.38;;;1.70;;
12593;SDS011;6362;50.208;9.182;2023-09-18T09:23:04;6.60;;;1.63;;
12593;SDS011;6362;50.208;9.182;2023-09-18T09:25:33;5.85;;;1.55;;
12593;SDS011;6362;50.208;9.182;2023-09-18T09:28:00;8.98;;;2.03;;
12593;SDS011;6362;50.208;9.182;2023-09-18T09:30:28;5.50;;;1.73;;
12593;SDS011;6362;50.208;9.182;2023-09-18T09:32:55;3.92;;;1.33;;
12593;SDS011;6362;50.208;9.182;2023-09-18T09:35:23;8.45;;;1.58;;
12593;SDS011;6362;50.208;9.182;2023-09-18T09:37:54;3.83;;;1.20;;
12593;SDS011;6362;50.208;9.182;2023-09-18T09:40:24;9.18;;;1.67;;
12593;SDS011;6362;50.208;9.182;2023-09-18T09:42:54;8.48;;;2.05;;
12593;SDS011;6362;50.208;9.182;2023-09-18T09:47:53;5.10;;;1.20;;
12593;SDS011;6362;50.208;9.182;2023-09-18T09:50:19;9.02;;;1.23;;
12593;SDS011;6362;50.208;9.182;2023-09-18T09:52:46;7.47;;;1.40;;
12593;SDS011;6362;50.208;9.182;2023-09-18T09:55:30;3.40;;;1.73;;
12593;SDS011;6362;50.208;9.182;2023-09-18T09:57:58;10.20;;;1.57;;
12593;SDS011;6362;50.208;9.182;2023-09-18T10:00:46;3.92;;;1.38;;
12593;SDS011;6362;50.208;9.182;2023-09-18T10:03:17;4.18;;;1.55;;
12593;SDS011;6362;50.208;9.182;2023-09-18T10:05:45;7.45;;;1.17;;
12593;SDS011;6362;50.208;9.182;2023-09-18T10:08:13;3.67;;;1.58;;
12593;SDS011;6362;50.208;9.182;2023-09-18T10:11:27;3.28;;;1.50;;
12593;SDS011;6362;50.208;9.182;2023-09-18T10:16:23;5.13;;;1.52;;
12593;SDS011;6362;50.208;9.182;2023-09-18T10:24:31;5.72;;;1.30;;
12593;SDS011;6362;50.208;9.182;2023-09-18T10:26:59;4.95;;;1.60;;
12593;SDS011;6362;50.208;9.182;2023-09-18T10:29:29;5.20;;;1.40;;
12593;SDS011;6362;50.208;9.182;2023-09-18T10:31:57;8.68;;;1.60;;
12593;SDS011;6362;50.208;9.182;2023-09-18T10:34:24;6.70;;;1.77;;
12593;SDS011;6362;50.208;9.182;2023-09-18T10:36:51;7.30;;;1.42;;
12593;SDS011;6362;50.208;9.182;2023-09-18T10:39:18;5.10;;;1.52;;
12593;SDS011;6362;50.208;9.182;2023-09-18T10:41:51;3.45;;;1.48;;
12593;SDS011;6362;50.208;9.182;2023-09-18T10:44:18;5.60;;;1.27;;
12593;SDS011;6362;50.208;9.182;2023-09-18T10:46:46;5.75;;;1.67;;
12593;SDS011;6362;50.208;9.182;2023-09-18T10:49:12;5.10;;;1.15;;
12593;SDS011;6362;50.208;9.182;2023-09-18T10:51:38;3.50;;;1.98;;
12593;SDS011;6362;50.208;9.182;2023-09-18T10:54:10;4.60;;;1.30;;
12593;SDS011;6362;50.208;9.182;2023-09-18T10:56:39;11.05;;;2.25;;
12593;SDS011;6362;50.208;9.182;2023-09-18T10:59:06;3.00;;;1.10;;
12593;SDS011;6362;50.208;9.182;2023-09-18T11:01:33;3.38;;;1.27;;
12593;SDS011;6362;50.208;9.182;2023-09-18T11:04:02;4.93;;;1.67;;
12593;SDS011;6362;50.208;9.182;2023-09-18T11:06:29;4.90;;;1.08;;
12593;SDS011;6362;50.208;9.182;2023-09-18T11:09:07;7.97;;;1.58;;
12593;SDS011;6362;50.208;9.182;2023-09-18T11:11:34;5.15;;;1.40;;
12593;SDS011;6362;50.208;9.182;2023-09-18T11:14:00;4.78;;;2.15;;
12593;SDS011;6362;50.208;9.182;2023-09-18T11:19:16;7.70;;;1.77;;
12593;SDS011;6362;50.208;9.182;2023-09-18T11:21:41;9.55;;;2.08;;
12593;SDS011;6362;50.208;9.182;2023-09-18T11:24:14;6.63;;;1.80;;
12593;SDS011;6362;50.208;9.182;2023-09-18T11:26:41;4.05;;;1.52;;
12593;SDS011;6362;50.208;9.182;2023-09-18T11:29:17;3.60;;;1.20;;
12593;SDS011;6362;50.208;9.182;2023-09-18T11:36:45;4.85;;;1.45;;
12593;SDS011;6362;50.208;9.182;2023-09-18T11:39:11;6.07;;;2.67;;
12593;SDS011;6362;50.208;9.182;2023-09-18T11:41:38;7.00;;;1.60;;
12593;SDS011;6362;50.208;9.182;2023-09-18T11:44:50;6.68;;;1.58;;
12593;SDS011;6362;50.208;9.182;2023-09-18T11:46:53;4.25;;;1.40;;
12593;SDS011;6362;50.208;9.182;2023-09-18T11:49:23;5.25;;;1.55;;
12593;SDS011;6362;50.208;9.182;2023-09-18T11:51:53;4.05;;;1.30;;
12593;SDS011;6362;50.208;9.182;2023-09-18T11:54:19;5.00;;;1.50;;
12593;SDS011;6362;50.208;9.182;2023-09-18T11:56:46;3.42;;;1.20;;
12593;SDS011;6362;50.208;9.182;2023-09-18T11:59:11;5.53;;;1.63;;
12593;SDS011;6362;50.208;9.182;2023-09-18T12:01:38;6.60;;;1.33;;
12593;SDS011;6362;50.208;9.182;2023-09-18T12:04:04;7.38;;;1.70;;
12593;SDS011;6362;50.208;9.182;2023-09-18T12:06:43;4.90;;;1.08;;
12593;SDS011;6362;50.208;9.182;2023-09-18T12:09:08;4.07;;;1.52;;
12593;SDS011;6362;50.208;9.182;2023-09-18T12:11:34;3.92;;;1.13;;
12593;SDS011;6362;50.208;9.182;2023-09-18T12:14:00;5.70;;;1.90;;
12593;SDS011;6362;50.208;9.182;2023-09-18T12:16:27;7.22;;;2.95;;
12593;SDS011;6362;50.208;9.182;2023-09-18T12:18:53;3.13;;;1.50;;
12593;SDS011;6362;50.208;9.182;2023-09-18T12:21:18;5.40;;;1.45;;
12593;SDS011;6362;50.208;9.182;2023-09-18T12:23:45;3.47;;;1.35;;
12593;SDS011;6362;50.208;9.182;2023-09-18T12:26:14;5.80;;;2.00;;
12593;SDS011;6362;50.208;9.182;2023-09-18T12:28:41;3.53;;;1.30;;
12593;SDS011;6362;50.208;9.182;2023-09-18T12:31:11;5.32;;;1.45;;
12593;SDS011;6362;50.208;9.182;2023-09-18T12:33:39;2.88;;;1.25;;
12593;SDS011;6362;50.208;9.182;2023-09-18T12:36:06;4.53;;;1.38;;
12593;SDS011;6362;50.208;9.182;2023-09-18T12:38:33;7.72;;;1.52;;
12593;SDS011;6362;50.208;9.182;2023-09-18T12:41:00;5.32;;;1.73;;
12593;SDS011;6362;50.208;9.182;2023-09-18T12:43:33;7.35;;;1.92;;
12593;SDS011;6362;50.208;9.182;2023-09-18T12:46:05;5.30;;;1.40;;
12593;SDS011;6362;50.208;9.182;2023-09-18T12:48:31;5.22;;;1.35;;
12593;SDS011;6362;50.208;9.182;2023-09-18T12:51:05;5.30;;;1.48;;
12593;SDS011;6362;50.208;9.182;2023-09-18T12:53:31;7.15;;;1.50;;
12593;SDS011;6362;50.208;9.182;2023-09-18T12:56:07;6.38;;;1.58;;
12593;SDS011;6362;50.208;9.182;2023-09-18T12:58:35;5.45;;;1.98;;
12593;SDS011;6362;50.208;9.182;2023-09-18T13:01:03;7.25;;;1.70;;
12593;SDS011;6362;50.208;9.182;2023-09-18T13:03:53;6.32;;;1.27;;
12593;SDS011;6362;50.208;9.182;2023-09-18T13:06:20;5.60;;;1.13;;
12593;SDS011;6362;50.208;9.182;2023-09-18T13:08:46;4.15;;;1.30;;
12593;SDS011;6362;50.208;9.182;2023-09-18T13:11:12;5.53;;;1.70;;
12593;SDS011;6362;50.208;9.182;2023-09-18T13:13:40;5.03;;;1.33;;
12593;SDS011;6362;50.208;9.182;2023-09-18T13:16:09;6.40;;;2.22;;
12593;SDS011;6362;50.208;9.182;2023-09-18T13:18:35;6.07;;;1.38;;
12593;SDS011;6362;50.208;9.182;2023-09-18T13:21:08;11.50;;;1.63;;
12593;SDS011;6362;50.208;9.182;2023-09-18T13:23:37;4.40;;;1.42;;
12593;SDS011;6362;50.208;9.182;2023-09-18T13:26:03;6.18;;;1.30;;
12593;SDS011;6362;50.208;9.182;2023-09-18T13:28:30;3.53;;;1.10;;
12593;SDS011;6362;50.208;9.182;2023-09-18T13:30:57;2.90;;;1.17;;
12593;SDS011;6362;50.208;9.182;2023-09-18T13:33:24;4.65;;;1.40;;
12593;SDS011;6362;50.208;9.182;2023-09-18T13:35:50;6.82;;;1.23;;
12593;SDS011;6362;50.208;9.182;2023-09-18T13:38:18;4.95;;;1.73;;
12593;SDS011;6362;50.208;9.182;2023-09-18T13:40:45;2.95;;;1.40;;
12593;SDS011;6362;50.208;9.182;2023-09-18T13:43:11;5.38;;;1.40;;
12593;SDS011;6362;50.208;9.182;2023-09-18T13:45:36;6.80;;;1.58;;
12593;SDS011;6362;50.208;9.182;2023-09-18T13:48:06;3.05;;;1.55;;
12593;SDS011;6362;50.208;9.182;2023-09-18T13:50:32;6.60;;;1.77;;
12593;SDS011;6362;50.208;9.182;2023-09-18T13:52:58;4.75;;;1.63;;
12593;SDS011;6362;50.208;9.182;2023-09-18T13:55:24;6.18;;;1.17;;
12593;SDS011;6362;50.208;9.182;2023-09-18T13:57:50;5.10;;;1.23;;
12593;SDS011;6362;50.208;9.182;2023-09-18T14:00:16;4.30;;;1.45;;
12593;SDS011;6362;50.208;9.182;2023-09-18T14:02:42;3.58;;;1.10;;
12593;SDS011;6362;50.208;9.182;2023-09-18T14:05:07;3.75;;;1.20;;
12593;SDS011;6362;50.208;9.182;2023-09-18T14:07:35;3.92;;;1.17;;
12593;SDS011;6362;50.208;9.182;2023-09-18T14:10:00;4.88;;;1.00;;
12593;SDS011;6362;50.208;9.182;2023-09-18T14:12:29;5.32;;;1.77;;
12593;SDS011;6362;50.208;9.182;2023-09-18T14:14:55;7.82;;;2.08;;
12593;SDS011;6362;50.208;9.182;2023-09-18T14:17:21;6.47;;;1.58;;
12593;SDS011;6362;50.208;9.182;2023-09-18T14:19:47;4.38;;;1.42;;
12593;SDS011;6362;50.208;9.182;2023-09-18T14:22:12;3.67;;;0.98;;
12593;SDS011;6362;50.208;9.182;2023-09-18T14:24:39;5.93;;;1.55;;
12593;SDS011;6362;50.208;9.182;2023-09-18T14:27:05;3.17;;;1.45;;
12593;SDS011;6362;50.208;9.182;2023-09-18T14:29:31;5.65;;;2.05;;
12593;SDS011;6362;50.208;9.182;2023-09-18T14:31:58;4.43;;;1.20;;
12593;SDS011;6362;50.208;9.182;2023-09-18T14:34:24;3.53;;;1.20;;
12593;SDS011;6362;50.208;9.182;2023-09-18T14:36:49;2.85;;;1.40;;
12593;SDS011;6362;50.208;9.182;2023-09-18T14:39:15;3.38;;;1.10;;
12593;SDS011;6362;50.208;9.182;2023-09-18T14:41:41;4.75;;;1.48;;
12593;SDS011;6362;50.208;9.182;2023-09-18T14:44:07;5.75;;;1.20;;
12593;SDS011;6362;50.208;9.182;2023-09-18T14:46:36;3.22;;;1.30;;
12593;SDS011;6362;50.208;9.182;2023-09-18T14:49:06;4.35;;;1.50;;
12593;SDS011;6362;50.208;9.182;2023-09-18T14:51:35;3.85;;;1.20;;
12593;SDS011;6362;50.208;9.182;2023-09-18T14:54:00;4.45;;;1.33;;
12593;SDS011;6362;50.208;9.182;2023-09-18T14:56:28;4.18;;;1.38;;
12593;SDS011;6362;50.208;9.182;2023-09-18T14:58:53;3.67;;;1.85;;
12593;SDS011;6362;50.208;9.182;2023-09-18T15:01:20;2.88;;;1.00;;
12593;SDS011;6362;50.208;9.182;2023-09-18T15:03:49;4.45;;;1.02;;
12593;SDS011;6362;50.208;9.182;2023-09-18T15:06:15;7.93;;;1.45;;
12593;SDS011;6362;50.208;9.182;2023-09-18T15:08:41;2.30;;;1.17;;
12593;SDS011;6362;50.208;9.182;2023-09-18T15:11:06;4.85;;;1.38;;
12593;SDS011;6362;50.208;9.182;2023-09-18T15:13:32;3.60;;;1.48;;
12593;SDS011;6362;50.208;9.182;2023-09-18T15:15:59;4.20;;;1.00;;
12593;SDS011;6362;50.208;9.182;2023-09-18T15:18:25;2.88;;;1.10;;
12593;SDS011;6362;50.208;9.182;2023-09-18T15:20:51;4.15;;;1.17;;
12593;SDS011;6362;50.208;9.182;2023-09-18T15:23:22;3.95;;;1.65;;
12593;SDS011;6362;50.208;9.182;2023-09-18T15:25:49;4.78;;;1.08;;
12593;SDS011;6362;50.208;9.182;2023-09-18T15:28:15;3.08;;;1.13;;